createdAt,value
2022-08-20T00:01:57.622Z,2.05
2022-08-20T00:04:25.019Z,1.77
2022-08-20T00:06:53.206Z,1.60
2022-08-20T00:09:20.549Z,2.05
2022-08-20T00:11:47.844Z,1.60
2022-08-20T00:14:15.233Z,1.38
2022-08-20T00:16:42.930Z,2.17
2022-08-20T00:19:10.788Z,1.70
2022-08-20T00:21:38.204Z,1.65
2022-08-20T00:24:06.947Z,1.65
2022-08-20T00:26:34.419Z,1.90
2022-08-20T00:29:04.524Z,1.40
2022-08-20T00:31:32.054Z,1.75
2022-08-20T00:34:00.428Z,1.80
2022-08-20T00:36:32.133Z,1.70
2022-08-20T00:39:01.389Z,2.00
2022-08-20T00:41:31.655Z,2.20
2022-08-20T00:44:11.665Z,2.15
2022-08-20T00:46:40.164Z,2.53
2022-08-20T00:49:10.112Z,3.10
2022-08-20T00:51:41.118Z,3.05
2022-08-20T00:54:20.530Z,3.00
2022-08-20T00:56:52.812Z,3.25
2022-08-20T00:59:24.052Z,2.80
2022-08-20T01:01:55.658Z,2.90
2022-08-20T01:04:28.197Z,2.92
2022-08-20T01:06:56.716Z,2.70
2022-08-20T01:09:49.675Z,2.40
2022-08-20T01:12:17.573Z,2.88
2022-08-20T01:14:46.948Z,2.90
2022-08-20T01:17:29.389Z,2.50
2022-08-20T01:20:11.710Z,2.83
2022-08-20T01:23:01.757Z,2.70
2022-08-20T01:25:48.959Z,2.10
2022-08-20T01:28:21.462Z,2.30
2022-08-20T01:30:49.331Z,1.80
2022-08-20T01:33:19.179Z,2.13
2022-08-20T01:35:47.117Z,1.80
2022-08-20T01:38:14.832Z,2.53
2022-08-20T01:40:47.609Z,1.83
2022-08-20T01:43:15.254Z,1.90
2022-08-20T01:45:44.871Z,1.80
2022-08-20T01:48:15.350Z,1.88
2022-08-20T01:51:08.835Z,1.80
2022-08-20T01:53:39.843Z,1.88
2022-08-20T01:56:09.673Z,2.00
2022-08-20T01:58:42.515Z,1.75
2022-08-20T02:01:33.336Z,1.88
2022-08-20T02:04:14.712Z,2.00
2022-08-20T02:06:56.243Z,1.90
2022-08-20T02:09:27.910Z,1.92
2022-08-20T02:11:56.933Z,1.40
2022-08-20T02:14:24.866Z,2.03
2022-08-20T02:16:55.096Z,2.08
2022-08-20T02:19:38.531Z,1.98
2022-08-20T02:22:24.963Z,2.20
2022-08-20T02:24:53.051Z,2.03
2022-08-20T02:27:25.434Z,1.92
2022-08-20T02:29:53.993Z,2.25
2022-08-20T02:32:32.173Z,2.10
2022-08-20T02:35:04.357Z,2.40
2022-08-20T02:37:31.991Z,2.10
2022-08-20T02:39:59.756Z,1.70
2022-08-20T02:42:28.054Z,1.70
2022-08-20T02:44:56.261Z,2.72
2022-08-20T02:47:23.757Z,1.88
2022-08-20T02:49:51.104Z,2.10
2022-08-20T02:52:18.860Z,2.53
2022-08-20T02:54:46.265Z,2.15
2022-08-20T02:57:15.030Z,1.90
2022-08-20T02:59:44.062Z,2.25
2022-08-20T03:02:12.197Z,1.73
2022-08-20T03:04:39.511Z,1.80
2022-08-20T03:07:07.369Z,1.98
2022-08-20T03:09:34.698Z,2.30
2022-08-20T03:12:04.972Z,1.83
2022-08-20T03:14:35.329Z,1.85
2022-08-20T03:17:04.349Z,1.80
2022-08-20T03:19:31.683Z,1.98
2022-08-20T03:21:59.338Z,1.98
2022-08-20T03:24:26.609Z,1.70
2022-08-20T03:26:54.511Z,2.28
2022-08-20T03:29:22.227Z,1.77
2022-08-20T03:31:49.502Z,1.60
2022-08-20T03:34:16.777Z,1.92
2022-08-20T03:36:44.206Z,1.60
2022-08-20T03:39:13.428Z,2.38
2022-08-20T03:41:40.823Z,1.98
2022-08-20T03:44:08.138Z,2.00
2022-08-20T03:46:36.523Z,1.98
2022-08-20T03:49:04.160Z,1.70
2022-08-20T03:51:57.550Z,2.03
2022-08-20T03:54:20.892Z,1.67
2022-08-20T03:56:48.348Z,1.90
2022-08-20T03:59:16.155Z,2.20
2022-08-20T04:01:46.296Z,2.03
2022-08-20T04:06:42.995Z,1.98
2022-08-20T04:09:12.391Z,2.30
2022-08-20T04:11:41.089Z,1.65
2022-08-20T04:14:10.381Z,1.48
2022-08-20T04:16:40.640Z,1.90
2022-08-20T04:19:08.858Z,2.13
2022-08-20T04:21:37.008Z,2.00
2022-08-20T04:24:06.925Z,1.85
2022-08-20T04:26:37.433Z,1.90
2022-08-20T04:31:37.039Z,1.90
2022-08-20T04:34:08.070Z,1.98
2022-08-20T04:36:35.991Z,2.00
2022-08-20T04:39:03.523Z,1.98
2022-08-20T04:41:31.099Z,1.73
2022-08-20T04:43:58.589Z,1.92
2022-08-20T04:46:28.847Z,1.70
2022-08-20T04:51:25.221Z,1.60
2022-08-20T04:53:57.516Z,1.88
2022-08-20T04:58:59.215Z,1.95
2022-08-20T05:01:28.286Z,2.00
2022-08-20T05:03:57.332Z,1.90
2022-08-20T05:06:30.582Z,2.00
2022-08-20T05:09:00.454Z,2.03
2022-08-20T05:11:35.703Z,2.20
2022-08-20T05:14:06.057Z,2.13
2022-08-20T05:16:39.509Z,2.15
2022-08-20T05:19:09.807Z,2.20
2022-08-20T05:21:37.945Z,1.98
2022-08-20T05:24:07.604Z,2.50
2022-08-20T05:26:35.476Z,1.90
2022-08-20T05:29:05.243Z,2.30
2022-08-20T05:31:34.953Z,2.20
2022-08-20T05:34:04.393Z,1.90
2022-08-20T05:36:31.752Z,1.83
2022-08-20T05:38:59.282Z,2.10
2022-08-20T05:41:30.400Z,1.95
2022-08-20T05:44:02.233Z,2.10
2022-08-20T05:46:31.827Z,1.77
2022-08-20T05:49:02.045Z,2.58
2022-08-20T05:51:30.419Z,2.30
2022-08-20T05:53:58.236Z,2.00
2022-08-20T05:56:31.163Z,2.30
2022-08-20T05:59:02.685Z,2.38
2022-08-20T06:01:30.987Z,2.40
2022-08-20T06:04:17.286Z,2.42
2022-08-20T06:06:47.628Z,2.55
2022-08-20T06:09:31.800Z,2.40
2022-08-20T06:12:06.661Z,2.58
2022-08-20T06:14:34.800Z,2.63
2022-08-20T06:17:13.449Z,2.30
2022-08-20T06:22:18.743Z,2.15
2022-08-20T06:24:49.865Z,2.00
2022-08-20T06:27:17.527Z,2.38
2022-08-20T06:29:45.012Z,2.47
2022-08-20T06:32:14.344Z,1.88
2022-08-20T06:34:49.787Z,2.00
2022-08-20T06:37:31.157Z,2.88
2022-08-20T06:40:13.248Z,2.00
2022-08-20T06:42:48.049Z,2.10
2022-08-20T06:45:24.580Z,2.10
2022-08-20T06:47:55.640Z,2.50
2022-08-20T06:50:43.153Z,2.25
2022-08-20T06:53:21.241Z,2.00
2022-08-20T06:55:54.615Z,1.88
2022-08-20T06:58:35.724Z,2.53
2022-08-20T07:01:09.925Z,2.40
2022-08-20T07:03:54.104Z,2.30
2022-08-20T07:06:27.557Z,2.83
2022-08-20T07:08:57.958Z,1.98
2022-08-20T07:11:28.463Z,2.67
2022-08-20T07:13:58.525Z,2.20
2022-08-20T07:16:26.679Z,2.22
2022-08-20T07:18:54.337Z,2.35
2022-08-20T07:21:23.853Z,2.13
2022-08-20T07:23:53.229Z,2.17
2022-08-20T07:26:21.323Z,2.20
2022-08-20T07:28:52.507Z,2.92
2022-08-20T07:31:40.126Z,1.95
2022-08-20T07:34:11.595Z,2.20
2022-08-20T07:36:40.584Z,2.50
2022-08-20T07:39:07.864Z,2.20
2022-08-20T07:41:43.768Z,2.13
2022-08-20T07:44:31.007Z,2.10
2022-08-20T07:47:00.857Z,2.50
2022-08-20T07:49:28.168Z,2.20
2022-08-20T07:51:55.905Z,2.00
2022-08-20T07:54:24.039Z,2.30
2022-08-20T07:56:56.358Z,2.10
2022-08-20T07:59:24.290Z,2.25
2022-08-20T08:01:53.766Z,2.13
2022-08-20T08:04:21.238Z,2.00
2022-08-20T08:06:48.894Z,1.95
2022-08-20T08:09:17.243Z,2.28
2022-08-20T08:11:52.626Z,2.80
2022-08-20T08:14:26.885Z,2.10
2022-08-20T08:16:58.295Z,2.10
2022-08-20T08:19:41.465Z,2.30
2022-08-20T08:22:13.157Z,2.25
2022-08-20T08:24:57.478Z,1.95
2022-08-20T08:27:25.993Z,1.98
2022-08-20T08:29:55.027Z,2.00
2022-08-20T08:32:22.890Z,2.45
2022-08-20T08:34:50.435Z,1.60
2022-08-20T08:37:18.065Z,1.88
2022-08-20T08:39:47.895Z,1.90
2022-08-20T08:42:44.166Z,2.20
2022-08-20T08:45:16.183Z,2.10
2022-08-20T08:47:44.885Z,2.08
2022-08-20T08:50:53.232Z,1.98
2022-08-20T08:53:30.875Z,2.15
2022-08-20T08:56:00.016Z,1.70
2022-08-20T08:58:28.300Z,1.73
2022-08-20T09:00:56.342Z,1.85
2022-08-20T09:03:29.576Z,1.80
2022-08-20T09:06:00.812Z,1.52
2022-08-20T09:08:37.627Z,1.55
2022-08-20T09:11:07.693Z,1.55
2022-08-20T09:13:35.486Z,1.65
2022-08-20T09:16:03.615Z,1.40
2022-08-20T09:18:30.905Z,1.73
2022-08-20T09:20:58.342Z,1.40
2022-08-20T09:23:26.558Z,1.77
2022-08-20T09:25:58.721Z,1.70
2022-08-20T09:28:32.468Z,1.73
2022-08-20T09:31:03.273Z,2.05
2022-08-20T09:33:31.874Z,1.80
2022-08-20T09:35:59.611Z,1.60
2022-08-20T09:38:28.036Z,1.65
2022-08-20T09:40:55.475Z,1.90
2022-08-20T09:43:23.370Z,1.80
2022-08-20T09:45:52.279Z,1.60
2022-08-20T09:48:19.682Z,1.77
2022-08-20T09:50:50.476Z,1.90
2022-08-20T09:53:19.840Z,1.50
2022-08-20T09:55:53.037Z,2.10
2022-08-20T09:58:53.110Z,1.63
2022-08-20T10:01:23.489Z,1.50
2022-08-20T10:06:21.851Z,1.73
2022-08-20T10:08:50.044Z,1.30
2022-08-20T10:11:19.148Z,1.45
2022-08-20T10:13:46.659Z,1.70
2022-08-20T10:16:14.332Z,1.30
2022-08-20T10:18:41.664Z,1.20
2022-08-20T10:21:11.629Z,1.30
2022-08-20T10:23:39.013Z,1.48
2022-08-20T10:26:08.776Z,1.30
2022-08-20T10:28:36.532Z,1.10
2022-08-20T10:31:07.152Z,1.08
2022-08-20T10:33:36.995Z,1.20
2022-08-20T10:36:16.902Z,1.30
2022-08-20T10:38:45.202Z,1.30
2022-08-20T10:41:12.964Z,1.25
2022-08-20T10:43:40.474Z,1.00
2022-08-20T10:46:07.920Z,0.90
2022-08-20T10:48:35.436Z,0.90
2022-08-20T10:51:02.897Z,1.00
2022-08-20T10:53:30.413Z,1.05
2022-08-20T10:56:00.848Z,0.88
2022-08-20T10:58:35.640Z,1.02
2022-08-20T11:01:07.817Z,1.10
2022-08-20T11:03:35.463Z,1.10
2022-08-20T11:06:03.784Z,1.20
2022-08-20T11:08:34.117Z,1.10
2022-08-20T11:11:05.045Z,0.98
2022-08-20T11:13:34.330Z,1.10
2022-08-20T11:16:05.515Z,1.30
2022-08-20T11:18:33.689Z,1.20
2022-08-20T11:21:01.624Z,1.02
2022-08-20T11:23:31.228Z,1.15
2022-08-20T11:26:00.755Z,0.85
2022-08-20T11:28:31.708Z,1.33
2022-08-20T11:31:01.457Z,1.20
2022-08-20T11:33:29.455Z,1.40
2022-08-20T11:35:57.914Z,1.33
2022-08-20T11:38:25.661Z,1.00
2022-08-20T11:40:52.986Z,1.10
2022-08-20T11:43:20.418Z,1.17
2022-08-20T11:45:54.476Z,1.20
2022-08-20T11:48:22.394Z,1.27
2022-08-20T11:50:50.485Z,1.20
2022-08-20T11:53:18.757Z,1.20
2022-08-20T11:55:47.399Z,1.10
2022-08-20T11:58:15.661Z,1.30
2022-08-20T12:00:43.277Z,1.20
2022-08-20T12:03:11.775Z,1.30
2022-08-20T12:05:44.846Z,1.10
2022-08-20T12:08:27.186Z,1.25
2022-08-20T12:11:00.217Z,1.30
2022-08-20T12:13:47.826Z,1.10
2022-08-20T12:16:18.792Z,1.25
2022-08-20T12:18:47.802Z,1.30
2022-08-20T12:21:15.942Z,1.10
2022-08-20T12:23:43.437Z,1.20
2022-08-20T12:26:10.877Z,1.40
2022-08-20T12:28:38.383Z,1.13
2022-08-20T12:31:06.236Z,1.20
2022-08-20T12:33:36.210Z,1.10
2022-08-20T12:36:06.722Z,1.02
2022-08-20T12:38:34.214Z,1.67
2022-08-20T12:41:05.736Z,1.20
2022-08-20T12:43:33.136Z,1.20
2022-08-20T12:46:02.172Z,1.02
2022-08-20T12:48:34.939Z,1.08
2022-08-20T12:51:02.794Z,1.00
2022-08-20T12:53:30.108Z,1.10
2022-08-20T12:55:58.101Z,1.30
2022-08-20T12:58:26.017Z,1.10
2022-08-20T13:00:53.734Z,1.17
2022-08-20T13:03:21.378Z,1.10
2022-08-20T13:05:50.333Z,1.10
2022-08-20T13:08:19.553Z,1.20
2022-08-20T13:10:47.228Z,1.17
2022-08-20T13:13:17.569Z,1.20
2022-08-20T13:15:52.417Z,1.15
2022-08-20T13:18:21.341Z,1.20
2022-08-20T13:20:49.329Z,1.40
2022-08-20T13:23:17.151Z,1.20
2022-08-20T13:25:44.572Z,1.27
2022-08-20T13:28:13.228Z,1.20
2022-08-20T13:30:41.691Z,1.00
2022-08-20T13:33:10.683Z,1.10
2022-08-20T13:35:38.114Z,1.13
2022-08-20T13:38:07.541Z,1.42
2022-08-20T13:40:36.117Z,1.10
2022-08-20T13:43:07.181Z,1.23
2022-08-20T13:45:39.137Z,1.20
2022-08-20T13:48:14.846Z,1.35
2022-08-20T13:50:47.177Z,1.10
2022-08-20T13:53:18.345Z,1.10
2022-08-20T13:55:46.290Z,1.20
2022-08-20T13:58:13.973Z,1.30
2022-08-20T14:00:41.796Z,1.48
2022-08-20T14:03:10.433Z,1.10
2022-08-20T14:05:39.103Z,1.23
2022-08-20T14:08:16.271Z,1.30
2022-08-20T14:10:52.667Z,1.25
2022-08-20T14:13:29.086Z,1.17
2022-08-20T14:15:56.957Z,1.20
2022-08-20T14:18:25.668Z,1.30
2022-08-20T14:20:53.107Z,1.50
2022-08-20T14:23:20.423Z,1.20
2022-08-20T14:25:50.272Z,1.33
2022-08-20T14:28:23.039Z,1.20
2022-08-20T14:30:52.933Z,1.27
2022-08-20T14:33:22.264Z,0.90
2022-08-20T14:35:49.685Z,1.38
2022-08-20T14:38:17.027Z,1.30
2022-08-20T14:40:44.979Z,1.58
2022-08-20T14:43:12.359Z,1.30
2022-08-20T14:45:42.059Z,1.20
2022-08-20T14:48:11.468Z,1.20
2022-08-20T14:50:42.405Z,1.30
2022-08-20T14:53:10.341Z,1.20
2022-08-20T14:55:38.213Z,1.20
2022-08-20T14:58:13.444Z,1.33
2022-08-20T15:00:41.686Z,1.38
2022-08-20T15:03:09.347Z,2.33
2022-08-20T15:05:39.568Z,1.42
2022-08-20T15:08:10.738Z,1.77
2022-08-20T15:10:39.374Z,1.45
2022-08-20T15:13:07.075Z,1.33
2022-08-20T15:15:35.183Z,1.40
2022-08-20T15:18:03.644Z,1.40
2022-08-20T15:20:33.697Z,1.40
2022-08-20T15:25:36.239Z,1.17
2022-08-20T15:28:07.475Z,1.70
2022-08-20T15:33:02.750Z,1.58
2022-08-20T15:35:30.920Z,1.70
2022-08-20T15:37:59.874Z,1.60
2022-08-20T15:40:29.866Z,1.58
2022-08-20T15:45:27.466Z,1.60
2022-08-20T15:48:02.747Z,1.40
2022-08-20T15:51:11.797Z,1.83
2022-08-20T15:53:54.526Z,2.80
2022-08-20T15:56:32.415Z,1.70
2022-08-20T15:59:14.475Z,1.52
2022-08-20T16:02:02.368Z,1.65
2022-08-20T16:04:45.323Z,1.85
2022-08-20T16:07:23.946Z,1.48
2022-08-20T16:10:38.250Z,1.70
2022-08-20T16:13:19.540Z,1.63
2022-08-20T16:15:49.605Z,1.60
2022-08-20T16:18:23.228Z,1.50
2022-08-20T16:20:54.293Z,1.75
2022-08-20T16:23:28.623Z,1.67
2022-08-20T16:26:11.461Z,2.00
2022-08-20T16:28:50.413Z,1.60
2022-08-20T16:31:25.913Z,1.75
2022-08-20T16:34:32.320Z,2.10
2022-08-20T16:38:02.479Z,1.60
2022-08-20T16:40:56.743Z,1.50
2022-08-20T16:43:36.893Z,1.65
2022-08-20T16:46:20.248Z,1.63
2022-08-20T16:48:59.733Z,1.65
2022-08-20T16:51:39.482Z,1.73
2022-08-20T16:54:08.899Z,1.33
2022-08-20T16:56:42.397Z,1.60
2022-08-20T16:59:18.351Z,1.80
2022-08-20T17:02:37.445Z,1.50
2022-08-20T17:05:53.820Z,1.58
2022-08-20T17:09:18.974Z,1.92
2022-08-20T17:12:54.469Z,2.65
2022-08-20T17:15:50.222Z,1.88
2022-08-20T17:18:35.486Z,1.88
2022-08-20T17:21:13.584Z,2.00
2022-08-20T17:23:55.913Z,2.15
2022-08-20T17:26:35.494Z,2.03
2022-08-20T17:29:22.074Z,2.40
2022-08-20T17:31:52.839Z,1.95
2022-08-20T17:34:28.744Z,2.13
2022-08-20T17:37:05.421Z,1.80
2022-08-20T17:39:33.445Z,2.00
2022-08-20T17:42:22.195Z,1.40
2022-08-20T17:45:12.002Z,1.98
2022-08-20T17:47:40.294Z,2.00
2022-08-20T17:50:17.428Z,2.20
2022-08-20T17:52:56.528Z,1.90
2022-08-20T17:55:25.565Z,2.10
2022-08-20T17:57:57.475Z,2.10
2022-08-20T18:00:29.195Z,1.85
2022-08-20T18:03:20.698Z,2.05
2022-08-20T18:05:57.523Z,1.95
2022-08-20T18:08:43.036Z,2.03
2022-08-20T18:11:25.149Z,1.70
2022-08-20T18:14:01.560Z,1.90
2022-08-20T18:16:42.837Z,2.00
2022-08-20T18:19:19.630Z,1.90
2022-08-20T18:22:06.284Z,2.10
2022-08-20T18:25:09.886Z,2.10
2022-08-20T18:27:44.589Z,1.95
2022-08-20T18:30:21.895Z,1.88
2022-08-20T18:32:59.142Z,1.98
2022-08-20T18:35:37.759Z,1.90
2022-08-20T18:38:22.997Z,1.65
2022-08-20T18:40:54.601Z,1.90
2022-08-20T18:43:31.622Z,2.20
2022-08-20T18:46:23.076Z,1.88
2022-08-20T18:48:53.243Z,2.00
2022-08-20T18:51:28.662Z,2.08
2022-08-20T18:53:56.507Z,2.47
2022-08-20T18:56:33.139Z,2.72
2022-08-20T18:59:02.416Z,4.03
2022-08-20T19:01:35.006Z,5.40
2022-08-20T19:04:12.571Z,5.28
2022-08-20T19:07:02.410Z,4.78
2022-08-20T19:09:46.969Z,2.60
2022-08-20T19:12:51.741Z,2.17
2022-08-20T19:15:22.126Z,3.05
2022-08-20T19:18:18.188Z,2.63
2022-08-20T19:20:59.089Z,2.25
2022-08-20T19:23:30.011Z,2.28
2022-08-20T19:26:05.088Z,2.10
2022-08-20T19:28:41.208Z,2.13
2022-08-20T19:31:27.145Z,1.98
2022-08-20T19:34:23.994Z,1.88
2022-08-20T19:37:09.998Z,2.10
2022-08-20T19:39:49.407Z,1.70
2022-08-20T19:42:22.148Z,1.70
2022-08-20T19:45:03.959Z,1.65
2022-08-20T19:47:46.396Z,1.52
2022-08-20T19:50:39.753Z,1.70
2022-08-20T19:53:16.444Z,1.80
2022-08-20T19:55:44.916Z,1.60
2022-08-20T19:58:26.588Z,1.80
2022-08-20T20:00:55.858Z,1.67
2022-08-20T20:03:34.488Z,2.78
2022-08-20T20:06:17.227Z,1.67
2022-08-20T20:09:00.428Z,1.65
2022-08-20T20:11:37.441Z,1.88
2022-08-20T20:14:08.758Z,1.90
2022-08-20T20:16:37.599Z,1.95
2022-08-20T20:19:25.779Z,1.88
2022-08-20T20:22:18.936Z,1.90
2022-08-20T20:25:05.276Z,1.85
2022-08-20T20:27:34.359Z,2.28
2022-08-20T20:30:12.836Z,1.88
2022-08-20T20:32:44.911Z,1.90
2022-08-20T20:35:25.783Z,1.80
2022-08-20T20:38:14.988Z,1.55
2022-08-20T20:40:50.613Z,1.85
2022-08-20T20:43:38.301Z,2.30
2022-08-20T20:46:14.844Z,1.90
2022-08-20T20:48:54.075Z,1.95
2022-08-20T20:51:35.591Z,2.30
2022-08-20T20:54:07.150Z,2.00
2022-08-20T20:56:42.409Z,2.20
2022-08-20T20:59:10.935Z,1.95
2022-08-20T21:01:50.054Z,2.17
2022-08-20T21:04:22.657Z,3.15
2022-08-20T21:06:52.281Z,1.90
2022-08-20T21:09:21.522Z,1.85
2022-08-20T21:11:49.078Z,1.75
2022-08-20T21:14:18.521Z,2.00
2022-08-20T21:16:46.949Z,1.93
2022-08-20T21:19:14.951Z,1.80
2022-08-20T21:21:42.745Z,1.90
2022-08-20T21:24:10.127Z,1.90
2022-08-20T21:26:39.656Z,2.10
2022-08-20T21:29:09.721Z,1.80
2022-08-20T21:31:43.938Z,1.80
2022-08-20T21:34:13.490Z,1.90
2022-08-20T21:36:41.839Z,2.10
2022-08-20T21:39:09.826Z,1.80
2022-08-20T21:41:38.387Z,1.80
2022-08-20T21:44:21.095Z,1.90
2022-08-20T21:46:50.978Z,1.90
2022-08-20T21:49:19.990Z,2.22
2022-08-20T21:51:48.300Z,2.53
2022-08-20T21:54:16.716Z,2.08
2022-08-20T21:57:02.933Z,2.67
2022-08-20T21:59:31.361Z,1.95
2022-08-20T22:02:01.492Z,2.30
2022-08-20T22:04:34.909Z,1.85
2022-08-20T22:07:04.219Z,2.20
2022-08-20T22:09:33.282Z,2.40
2022-08-20T22:12:03.244Z,3.38
2022-08-20T22:14:31.891Z,2.67
2022-08-20T22:17:00.051Z,2.95
2022-08-20T22:19:27.772Z,2.70
2022-08-20T22:21:57.311Z,2.85
2022-08-20T22:24:28.784Z,2.85
2022-08-20T22:26:57.424Z,2.67
2022-08-20T22:29:25.311Z,3.05
2022-08-20T22:31:53.507Z,2.67
2022-08-20T22:34:21.526Z,2.30
2022-08-20T22:36:51.266Z,2.10
2022-08-20T22:39:19.325Z,2.10
2022-08-20T22:41:46.770Z,2.50
2022-08-20T22:44:14.732Z,3.28
2022-08-20T22:46:48.046Z,2.65
2022-08-20T22:49:22.640Z,2.47
2022-08-20T22:51:57.911Z,2.33
2022-08-20T22:54:32.748Z,2.47
2022-08-20T22:57:02.298Z,2.42
2022-08-20T22:59:32.037Z,2.42
2022-08-20T23:02:07.986Z,2.35
2022-08-20T23:04:37.416Z,2.10
2022-08-20T23:07:10.806Z,2.40
2022-08-20T23:09:41.417Z,2.28
2022-08-20T23:12:09.203Z,2.45
2022-08-20T23:14:37.294Z,3.03
2022-08-20T23:17:13.685Z,2.45
2022-08-20T23:19:44.040Z,2.33
2022-08-20T23:22:12.038Z,2.50
2022-08-20T23:24:41.309Z,1.95
2022-08-20T23:27:13.453Z,2.10
2022-08-20T23:29:41.871Z,2.25
2022-08-20T23:32:10.972Z,2.22
2022-08-20T23:34:38.455Z,2.38
2022-08-20T23:37:07.767Z,2.22
2022-08-20T23:39:35.387Z,2.13
2022-08-20T23:42:02.788Z,2.88
2022-08-20T23:44:31.201Z,2.30
2022-08-20T23:47:02.323Z,2.38
2022-08-20T23:49:31.947Z,2.20
2022-08-20T23:52:00.855Z,2.77
2022-08-20T23:54:30.316Z,2.30
2022-08-20T23:56:59.010Z,2.40
2022-08-20T23:59:26.719Z,2.10
